Terminal Aerodrome Forecast
Issued by NWS

Home | Current Version | Previous Version | Text Only | Print | Product List | Glossary On
Versions: 1 2 3 4 5 6 7 8 9 10 11 12 13 14 15 16 17
000
FTUS46 KSTO 252300
TAFRBL
TAF
KRBL 252337Z 2600/2624 15022G30KT P6SM SHRA VCTS OVC040CB
      TEMPO 2601/2603 3SM TSRA BKN024CB
     FM260300 16015G26KT P6SM VCSH BKN050
     FM260800 17012KT P6SM BKN070
     FM261500 35008KT P6SM SKC=

USA.gov is the U.S. government's official web portal to all federal, state and local government web resources and services.